createdAt,value
2023-05-15T00:02:44.689Z,99.90
2023-05-15T00:05:46.715Z,99.90
2023-05-15T00:08:48.395Z,99.90
2023-05-15T00:11:51.109Z,99.90
2023-05-15T00:14:52.825Z,99.90
2023-05-15T00:17:54.709Z,99.90
2023-05-15T00:20:56.443Z,99.90
2023-05-15T00:23:58.405Z,99.90
2023-05-15T00:27:00.826Z,99.90
2023-05-15T00:30:02.521Z,99.90
2023-05-15T00:33:04.349Z,99.90
2023-05-15T00:36:06.574Z,99.90
2023-05-15T00:39:08.250Z,99.90
2023-05-15T00:42:10.822Z,99.90
2023-05-15T00:45:13.977Z,99.90
2023-05-15T00:48:16.467Z,99.90
2023-05-15T00:51:18.247Z,99.90
2023-05-15T00:54:20.090Z,99.90
2023-05-15T00:57:25.280Z,99.90
2023-05-15T01:00:28.275Z,99.90
2023-05-15T01:03:30.549Z,99.90
2023-05-15T01:06:35.284Z,99.90
2023-05-15T01:09:38.453Z,99.90
2023-05-15T01:12:43.027Z,99.90
2023-05-15T01:15:44.909Z,99.90
2023-05-15T01:18:46.659Z,99.90
2023-05-15T01:22:16.014Z,99.90
2023-05-15T01:25:17.642Z,99.90
2023-05-15T01:28:25.377Z,99.90
2023-05-15T01:31:32.107Z,99.90
2023-05-15T01:34:53.298Z,99.90
2023-05-15T01:38:31.513Z,99.90
2023-05-15T01:42:22.309Z,99.90
2023-05-15T01:45:25.428Z,99.90
2023-05-15T01:48:29.289Z,99.90
2023-05-15T01:51:33.369Z,99.90
2023-05-15T01:54:36.935Z,99.90
2023-05-15T01:57:40.653Z,99.90
2023-05-15T02:00:43.563Z,99.90
2023-05-15T02:03:47.083Z,99.90
2023-05-15T02:06:50.663Z,99.90
2023-05-15T02:09:53.066Z,99.90
2023-05-15T02:12:55.582Z,99.90
2023-05-15T02:15:58.090Z,99.90
2023-05-15T02:19:01.339Z,99.90
2023-05-15T02:22:03.606Z,99.90
2023-05-15T02:25:05.746Z,99.90
2023-05-15T02:28:16.441Z,99.90
2023-05-15T02:31:31.253Z,99.90
2023-05-15T02:35:17.788Z,99.90
2023-05-15T02:38:26.403Z,99.90
2023-05-15T02:41:29.598Z,99.90
2023-05-15T02:44:37.149Z,99.90
2023-05-15T02:47:40.566Z,99.90
2023-05-15T02:50:43.172Z,99.90
2023-05-15T02:53:44.915Z,99.90
2023-05-15T02:56:46.588Z,99.90
2023-05-15T02:59:48.597Z,99.90
2023-05-15T03:02:50.465Z,99.90
2023-05-15T03:05:52.703Z,99.90
2023-05-15T03:08:54.401Z,99.90
2023-05-15T03:11:56.243Z,99.90
2023-05-15T03:14:57.960Z,99.90
2023-05-15T03:17:59.663Z,99.90
2023-05-15T03:21:01.390Z,99.90
2023-05-15T03:24:03.161Z,99.90
2023-05-15T03:27:05.166Z,99.90
2023-05-15T03:30:07.522Z,99.90
2023-05-15T03:33:09.503Z,99.90
2023-05-15T03:36:11.586Z,99.90
2023-05-15T03:39:13.356Z,99.90
2023-05-15T03:42:15.147Z,99.90
2023-05-15T03:45:16.939Z,99.90
2023-05-15T03:48:18.610Z,99.90
2023-05-15T03:51:20.458Z,99.90
2023-05-15T03:54:22.485Z,99.90
2023-05-15T03:57:27.256Z,99.90
2023-05-15T04:00:28.989Z,99.90
2023-05-15T04:03:30.685Z,99.90
2023-05-15T04:06:32.366Z,99.90
2023-05-15T04:09:34.048Z,99.90
2023-05-15T04:12:35.859Z,99.90
2023-05-15T04:15:37.678Z,99.90
2023-05-15T04:18:39.410Z,99.90
2023-05-15T04:21:41.155Z,99.90
2023-05-15T04:24:42.865Z,99.90
2023-05-15T04:27:45.201Z,99.90
2023-05-15T04:30:47.040Z,99.90
2023-05-15T04:33:49.292Z,99.90
2023-05-15T04:36:52.383Z,99.90
2023-05-15T04:39:54.304Z,99.90
2023-05-15T04:42:56.929Z,99.90
2023-05-15T04:45:58.727Z,99.90
2023-05-15T04:49:00.735Z,99.90
2023-05-15T04:52:02.413Z,99.90
2023-05-15T04:55:04.443Z,99.90
2023-05-15T04:58:06.229Z,99.90
2023-05-15T05:01:07.978Z,99.90
2023-05-15T05:04:09.915Z,99.90
2023-05-15T05:07:11.681Z,99.90
2023-05-15T05:10:13.622Z,99.90
2023-05-15T05:13:15.253Z,99.90
2023-05-15T05:16:16.968Z,99.90
2023-05-15T05:19:18.663Z,99.90
2023-05-15T05:22:20.336Z,99.90
2023-05-15T05:25:22.065Z,99.90
2023-05-15T05:28:23.811Z,99.90
2023-05-15T05:31:25.704Z,99.90
2023-05-15T05:34:27.421Z,99.90
2023-05-15T05:37:29.114Z,99.90
2023-05-15T05:40:30.928Z,99.90
2023-05-15T05:43:32.591Z,99.90
2023-05-15T05:46:34.442Z,99.90
2023-05-15T05:49:36.106Z,99.90
2023-05-15T05:52:37.910Z,99.90
2023-05-15T05:55:39.687Z,99.90
2023-05-15T05:58:41.364Z,99.90
2023-05-15T06:01:43.136Z,99.90
2023-05-15T06:04:45.938Z,99.90
2023-05-15T06:07:47.814Z,99.90
2023-05-15T06:10:49.505Z,99.90
2023-05-15T06:13:51.526Z,99.90
2023-05-15T06:16:53.280Z,99.90
2023-05-15T06:19:55.731Z,99.90
2023-05-15T06:22:57.403Z,99.90
2023-05-15T06:25:59.073Z,99.90
2023-05-15T06:29:00.777Z,99.90
2023-05-15T06:32:02.537Z,99.90
2023-05-15T06:35:04.472Z,99.90
2023-05-15T06:38:06.122Z,99.90
2023-05-15T06:41:07.779Z,99.90
2023-05-15T06:44:09.451Z,99.90
2023-05-15T06:47:11.173Z,99.90
2023-05-15T06:50:12.934Z,99.90
2023-05-15T06:53:14.780Z,99.90
2023-05-15T06:56:16.459Z,99.90
2023-05-15T06:59:18.228Z,99.90
2023-05-15T07:02:19.943Z,99.90
2023-05-15T07:05:22.000Z,99.90
2023-05-15T07:08:23.838Z,99.90
2023-05-15T07:11:26.903Z,99.90
2023-05-15T07:14:28.551Z,99.90
2023-05-15T07:17:32.120Z,99.90
2023-05-15T07:20:35.181Z,99.90
2023-05-15T07:23:37.086Z,99.90
2023-05-15T07:26:50.242Z,99.90
2023-05-15T07:29:59.038Z,99.90
2023-05-15T07:33:00.968Z,99.90
2023-05-15T07:36:02.778Z,99.90
2023-05-15T07:39:04.494Z,99.90
2023-05-15T07:42:06.491Z,99.90
2023-05-15T07:45:08.615Z,99.90
2023-05-15T07:48:17.817Z,99.90
2023-05-15T07:51:19.495Z,99.90
2023-05-15T07:54:21.180Z,99.90
2023-05-15T07:57:23.082Z,99.90
2023-05-15T08:00:24.817Z,99.90
2023-05-15T08:03:26.637Z,99.90
2023-05-15T08:06:28.405Z,99.90
2023-05-15T08:09:30.186Z,99.90
2023-05-15T08:12:32.094Z,99.90
2023-05-15T08:15:33.760Z,99.90
2023-05-15T08:18:35.693Z,99.90
2023-05-15T08:21:37.445Z,99.90
2023-05-15T08:24:40.105Z,99.90
2023-05-15T08:27:41.844Z,99.90
2023-05-15T08:30:43.531Z,99.90
2023-05-15T08:33:45.188Z,99.90
2023-05-15T08:36:46.878Z,99.90
2023-05-15T08:39:48.586Z,99.90
2023-05-15T08:42:55.019Z,99.90
2023-05-15T08:45:58.070Z,99.90
2023-05-15T08:49:04.225Z,99.90
2023-05-15T08:52:06.386Z,99.90
2023-05-15T08:55:08.790Z,99.90
2023-05-15T08:58:10.683Z,99.90
2023-05-15T09:01:14.041Z,99.90
2023-05-15T09:04:16.165Z,99.90
2023-05-15T09:07:18.194Z,99.90
2023-05-15T09:10:20.680Z,99.90
2023-05-15T09:13:22.375Z,99.90
2023-05-15T09:16:24.249Z,99.90
2023-05-15T09:19:28.082Z,99.90
2023-05-15T09:22:36.548Z,99.90
2023-05-15T09:25:40.757Z,99.90
2023-05-15T09:28:43.070Z,99.90
2023-05-15T09:31:47.168Z,99.90
2023-05-15T09:34:48.884Z,99.90
2023-05-15T09:37:59.724Z,99.90
2023-05-15T09:41:06.654Z,99.90
2023-05-15T09:44:25.629Z,99.90
2023-05-15T09:47:29.209Z,99.90
2023-05-15T09:50:36.360Z,99.90
2023-05-15T09:53:38.634Z,99.90
2023-05-15T09:56:43.213Z,99.90
2023-05-15T09:59:48.921Z,99.90
2023-05-15T10:02:50.666Z,99.90
2023-05-15T10:05:59.835Z,99.90
2023-05-15T10:09:02.499Z,99.90
2023-05-15T10:12:05.308Z,99.90
2023-05-15T10:15:07.412Z,99.90
2023-05-15T10:18:09.355Z,99.90
2023-05-15T10:21:12.320Z,99.90
2023-05-15T10:24:17.831Z,99.90
2023-05-15T10:27:21.392Z,99.90
2023-05-15T10:30:24.242Z,99.90
2023-05-15T10:33:26.866Z,99.90
2023-05-15T10:36:28.836Z,97.80
2023-05-15T10:39:30.857Z,96.10
2023-05-15T10:42:34.441Z,94.60
2023-05-15T10:45:36.532Z,96.40
2023-05-15T10:48:39.159Z,96.00
2023-05-15T10:51:42.425Z,99.90
2023-05-15T10:54:44.758Z,99.60
2023-05-15T10:57:49.801Z,97.80
2023-05-15T11:00:51.639Z,91.30
2023-05-15T11:04:06.542Z,90.70
2023-05-15T11:07:13.784Z,96.60
2023-05-15T11:10:30.545Z,84.80
2023-05-15T11:14:06.207Z,90.90
2023-05-15T11:17:12.381Z,93.20
2023-05-15T11:20:14.274Z,93.10
2023-05-15T11:23:16.030Z,93.90
2023-05-15T11:26:32.789Z,94.50
2023-05-15T11:29:35.097Z,91.20
2023-05-15T11:32:59.884Z,91.40
2023-05-15T11:36:04.620Z,93.90
2023-05-15T11:39:12.503Z,93.40
2023-05-15T11:42:14.413Z,94.00
2023-05-15T11:45:16.117Z,90.80
2023-05-15T11:48:18.645Z,80.70
2023-05-15T11:51:22.364Z,82.90
2023-05-15T11:54:25.256Z,82.00
2023-05-15T11:57:27.818Z,89.20
2023-05-15T12:00:29.717Z,90.40
2023-05-15T12:03:37.891Z,87.40
2023-05-15T12:06:40.635Z,92.00
2023-05-15T12:09:42.354Z,90.30
2023-05-15T12:12:46.083Z,87.00
2023-05-15T12:15:47.824Z,89.50
2023-05-15T12:18:49.993Z,87.70
2023-05-15T12:21:51.656Z,82.20
2023-05-15T12:24:53.354Z,80.70
2023-05-15T12:27:55.341Z,84.20
2023-05-15T12:30:59.070Z,87.60
2023-05-15T12:34:00.937Z,82.10
2023-05-15T12:37:03.590Z,81.90
2023-05-15T12:40:12.606Z,87.90
2023-05-15T12:43:14.731Z,90.90
2023-05-15T12:46:16.711Z,90.60
2023-05-15T12:49:22.849Z,90.70
2023-05-15T12:52:30.961Z,89.80
2023-05-15T12:55:35.514Z,86.20
2023-05-15T12:58:38.140Z,85.30
2023-05-15T13:01:42.412Z,88.40
2023-05-15T13:04:46.719Z,91.40
2023-05-15T13:07:48.613Z,89.70
2023-05-15T13:10:59.417Z,92.90
2023-05-15T13:14:01.141Z,90.70
2023-05-15T13:17:03.316Z,91.60
2023-05-15T13:20:06.024Z,90.80
2023-05-15T13:23:09.245Z,91.80
2023-05-15T13:26:10.975Z,92.40
2023-05-15T13:29:12.704Z,87.30
2023-05-15T13:32:14.415Z,87.50
2023-05-15T13:35:16.438Z,92.10
2023-05-15T13:38:18.082Z,89.70
2023-05-15T13:41:19.755Z,90.60
2023-05-15T13:44:21.402Z,90.20
2023-05-15T13:47:23.038Z,91.60
2023-05-15T13:50:25.093Z,91.00
2023-05-15T13:53:27.068Z,90.90
2023-05-15T13:56:29.190Z,81.30
2023-05-15T13:59:31.029Z,90.10
2023-05-15T14:02:32.729Z,87.50
2023-05-15T14:05:34.481Z,88.70
2023-05-15T14:08:36.239Z,86.60
2023-05-15T14:11:37.940Z,86.90
2023-05-15T14:14:39.652Z,90.50
2023-05-15T14:17:41.764Z,91.90
2023-05-15T14:20:43.646Z,93.20
2023-05-15T14:23:45.347Z,93.60
2023-05-15T14:26:47.059Z,94.70
2023-05-15T14:29:49.167Z,95.10
2023-05-15T14:32:51.214Z,95.30
2023-05-15T14:35:53.647Z,93.40
2023-05-15T14:38:55.314Z,95.50
2023-05-15T14:41:57.027Z,96.10
2023-05-15T14:45:00.038Z,96.80
2023-05-15T14:48:01.813Z,95.10
2023-05-15T14:51:03.609Z,95.70
2023-05-15T14:54:05.472Z,94.40
2023-05-15T14:57:07.674Z,96.30
2023-05-15T15:00:09.926Z,93.90
2023-05-15T15:03:11.765Z,94.90
2023-05-15T15:06:13.548Z,95.40
2023-05-15T15:09:15.381Z,94.30
2023-05-15T15:12:17.059Z,93.90
2023-05-15T15:15:19.956Z,94.80
2023-05-15T15:18:22.043Z,93.20
2023-05-15T15:21:23.928Z,95.40
2023-05-15T15:24:25.625Z,92.70
2023-05-15T15:27:27.517Z,92.00
2023-05-15T15:30:30.952Z,92.70
2023-05-15T15:33:32.693Z,93.30
2023-05-15T15:36:37.410Z,91.70
2023-05-15T15:39:39.108Z,92.20
2023-05-15T15:42:40.960Z,94.40
2023-05-15T15:45:42.655Z,93.80
2023-05-15T15:48:44.586Z,94.90
2023-05-15T15:51:46.275Z,95.20
2023-05-15T15:54:49.163Z,94.50
2023-05-15T15:57:50.966Z,95.00
2023-05-15T16:00:52.787Z,97.50
2023-05-15T16:03:54.571Z,97.60
2023-05-15T16:06:56.282Z,99.20
2023-05-15T16:10:10.668Z,98.40
2023-05-15T16:13:13.781Z,99.40
2023-05-15T16:16:16.019Z,99.90
2023-05-15T16:19:17.819Z,99.90
2023-05-15T16:22:19.511Z,99.90
2023-05-15T16:25:21.266Z,99.90
2023-05-15T16:28:22.892Z,99.90
2023-05-15T16:31:24.756Z,99.90
2023-05-15T16:34:26.552Z,99.90
2023-05-15T16:37:28.273Z,99.90
2023-05-15T16:40:30.849Z,99.90
2023-05-15T16:43:32.556Z,99.90
2023-05-15T16:46:34.624Z,99.90
2023-05-15T16:49:36.306Z,99.90
2023-05-15T16:52:39.474Z,99.90
2023-05-15T16:55:41.129Z,99.90
2023-05-15T16:58:42.886Z,98.20
2023-05-15T17:01:44.650Z,95.60
2023-05-15T17:04:46.353Z,96.30
2023-05-15T17:07:48.151Z,96.30
2023-05-15T17:10:50.110Z,95.20
2023-05-15T17:13:51.792Z,97.20
2023-05-15T17:16:53.444Z,97.80
2023-05-15T17:19:55.814Z,99.10
2023-05-15T17:22:58.006Z,99.90
2023-05-15T17:26:00.321Z,99.90
2023-05-15T17:29:02.051Z,99.90
2023-05-15T17:32:04.351Z,99.90
2023-05-15T17:35:06.760Z,99.90
2023-05-15T17:38:08.769Z,99.90
2023-05-15T17:41:10.484Z,99.90
2023-05-15T17:44:12.350Z,99.90
2023-05-15T17:47:14.005Z,99.90
2023-05-15T17:50:15.761Z,99.90
2023-05-15T17:53:17.746Z,99.90
2023-05-15T17:56:19.455Z,99.90
2023-05-15T17:59:21.231Z,99.90
2023-05-15T18:02:22.926Z,99.90
2023-05-15T18:05:24.909Z,99.90
2023-05-15T18:08:26.864Z,99.90
2023-05-15T18:11:28.516Z,99.90
2023-05-15T18:14:30.257Z,99.90
2023-05-15T18:17:31.990Z,99.90
2023-05-15T18:20:33.770Z,99.90
2023-05-15T18:23:35.523Z,99.90
2023-05-15T18:26:37.469Z,99.90
2023-05-15T18:29:39.250Z,99.90
2023-05-15T18:32:41.389Z,99.90
2023-05-15T18:35:43.121Z,99.90
2023-05-15T18:38:45.231Z,99.90
2023-05-15T18:41:46.907Z,99.90
2023-05-15T18:44:48.580Z,99.90
2023-05-15T18:47:51.169Z,99.90
2023-05-15T18:50:54.474Z,99.90
2023-05-15T18:53:56.173Z,99.90
2023-05-15T18:56:57.854Z,99.90
2023-05-15T18:59:59.506Z,99.90
2023-05-15T19:03:01.824Z,99.90
2023-05-15T19:06:03.818Z,99.90
2023-05-15T19:09:05.558Z,99.90
2023-05-15T19:12:07.337Z,99.90
2023-05-15T19:15:12.229Z,99.90
2023-05-15T19:18:13.909Z,99.90
2023-05-15T19:21:15.692Z,99.90
2023-05-15T19:24:17.722Z,99.90
2023-05-15T19:27:19.388Z,99.90
2023-05-15T19:30:21.334Z,99.90
2023-05-15T19:33:23.050Z,99.90
2023-05-15T19:36:24.766Z,99.90
2023-05-15T19:39:26.455Z,99.90
2023-05-15T19:42:28.152Z,99.90
2023-05-15T19:45:30.757Z,99.90
2023-05-15T19:48:32.453Z,99.90
2023-05-15T19:51:34.273Z,99.90
2023-05-15T19:54:35.963Z,99.90
2023-05-15T19:57:40.073Z,99.90
2023-05-15T20:00:41.860Z,99.90
2023-05-15T20:03:43.752Z,99.90
2023-05-15T20:06:45.524Z,99.90
2023-05-15T20:09:47.241Z,99.90
2023-05-15T20:12:48.925Z,99.90
2023-05-15T20:15:58.106Z,99.90
2023-05-15T20:18:59.922Z,99.90
2023-05-15T20:22:03.916Z,99.90
2023-05-15T20:25:06.294Z,99.90
2023-05-15T20:28:08.011Z,99.90
2023-05-15T20:31:10.057Z,99.90
2023-05-15T20:34:14.839Z,99.90
2023-05-15T20:37:16.488Z,99.90
2023-05-15T20:40:22.701Z,99.90
2023-05-15T20:43:24.782Z,99.90
2023-05-15T20:46:28.231Z,99.90
2023-05-15T20:49:32.085Z,99.90
2023-05-15T20:52:33.767Z,99.90
2023-05-15T20:55:35.650Z,99.90
2023-05-15T20:58:37.397Z,99.90
2023-05-15T21:01:39.201Z,99.90
2023-05-15T21:04:41.385Z,99.90
2023-05-15T21:07:43.189Z,99.90
2023-05-15T21:10:45.679Z,99.90
2023-05-15T21:13:47.349Z,99.90
2023-05-15T21:16:49.077Z,99.90
2023-05-15T21:19:50.948Z,99.90
2023-05-15T21:22:52.666Z,99.90
2023-05-15T21:25:54.343Z,99.90
2023-05-15T21:28:58.954Z,99.90
2023-05-15T21:32:00.825Z,99.90
2023-05-15T21:35:02.504Z,99.90
2023-05-15T21:38:04.261Z,99.90
2023-05-15T21:41:06.046Z,99.90
2023-05-15T21:44:07.782Z,99.90
2023-05-15T21:47:09.466Z,99.90
2023-05-15T21:50:11.319Z,99.90
2023-05-15T21:53:13.002Z,99.90
2023-05-15T21:56:14.667Z,99.90
2023-05-15T21:59:16.317Z,99.90
2023-05-15T22:02:17.950Z,99.90
2023-05-15T22:05:19.661Z,99.90
2023-05-15T22:08:21.566Z,99.90
2023-05-15T22:11:23.488Z,99.90
2023-05-15T22:14:25.331Z,99.90
2023-05-15T22:17:28.924Z,99.90
2023-05-15T22:20:31.706Z,99.90
2023-05-15T22:23:33.461Z,99.90
2023-05-15T22:26:35.284Z,99.90
2023-05-15T22:29:36.970Z,99.90
2023-05-15T22:32:38.844Z,99.90
2023-05-15T22:35:40.526Z,99.90
2023-05-15T22:38:42.700Z,99.90
2023-05-15T22:41:44.381Z,99.90
2023-05-15T22:44:46.679Z,99.90
2023-05-15T22:47:49.102Z,99.90
2023-05-15T22:50:52.242Z,99.90
2023-05-15T22:53:53.981Z,99.90
2023-05-15T22:56:55.989Z,99.90
2023-05-15T22:59:57.738Z,99.90
2023-05-15T23:02:59.543Z,99.90
2023-05-15T23:06:01.379Z,99.90
2023-05-15T23:09:04.899Z,99.90
2023-05-15T23:12:07.180Z,99.90
2023-05-15T23:15:10.394Z,99.90
2023-05-15T23:18:12.251Z,99.90
2023-05-15T23:21:13.993Z,99.90
2023-05-15T23:24:16.024Z,99.90
2023-05-15T23:27:17.712Z,99.90
2023-05-15T23:30:19.564Z,99.90
2023-05-15T23:33:21.604Z,99.90
2023-05-15T23:36:23.310Z,99.90
2023-05-15T23:39:24.934Z,99.90
2023-05-15T23:42:26.635Z,99.90
2023-05-15T23:45:28.925Z,99.90
2023-05-15T23:48:31.616Z,99.90
2023-05-15T23:51:33.294Z,99.90
2023-05-15T23:54:34.989Z,99.90
2023-05-15T23:57:36.665Z,99.90
